»·PEaware :: GEC3295 KSFO-KPHX

GEC3295 :: KSFO-KPHX

FLIGHT INFORMATION

Flight Status: Arrived
Operator:
Lufthansa Cargo
More flights by this operator :: More flights under this callsign
Pilot: William B. (10095)
Aircraft: BOEING 777-200
(B772)
More flights by this aircraft type
Origin: KSFO San Francisco Intl
United States
Destination: KPHX Phoenix Sky Harbor Intl
United States
More flights between these airports :: More routes between these airports
Route: +SAHEY3 NTELL Q162 MYCAL WOTRO BRUSR1
File this flight plan on PilotEdge
Remarks: P3d V3.4 pmdg 777
Altitude:
(Current/Filed)
330ft
Speed:
(Current/Filed)
200kts
Departed: 20-Feb-17 04:49 PM
Arrived: 20-Feb-17 06:09 PM
Distance/Time
Traveled:
564nm/1:20
Distance/Time
To Go:
Arrived

Flight Plot

Page will automatically refresh every two minutes.


Map Options




Map Legend


Flown Route
Filed Route
Departure Airport
Arrival Airport
Navaid (VOR, NDB)
Fix

Horizontal Profiles

Position Reports

Time Latitude Longitude Heading Altitude Ground
Speed
20-Feb-17 16:26 37.619938 -122.397514 254 26ft 0kts
20-Feb-17 16:27 37.619938 -122.397514 254 26ft 0kts
20-Feb-17 16:28 37.619938 -122.397514 254 26ft 0kts
20-Feb-17 16:29 37.619938 -122.397514 254 26ft 0kts
20-Feb-17 16:30 37.619938 -122.397514 254 26ft 0kts
20-Feb-17 16:31 37.619938 -122.397514 254 26ft 0kts
20-Feb-17 16:32 37.619938 -122.397514 254 26ft 0kts
20-Feb-17 16:33 37.619938 -122.397514 254 26ft 0kts
20-Feb-17 16:34 37.619938 -122.397514 254 26ft 0kts
20-Feb-17 16:35 37.619938 -122.397514 254 26ft 0kts
20-Feb-17 16:36 37.619938 -122.397514 254 26ft 0kts
20-Feb-17 16:37 37.619938 -122.397514 254 26ft 0kts
20-Feb-17 16:38 37.619962 -122.397402 254 26ft 2kts
20-Feb-17 16:39 37.620128 -122.396616 254 26ft 2kts
20-Feb-17 16:40 37.620139 -122.396563 254 26ft 0kts
20-Feb-17 16:41 37.620139 -122.396563 254 26ft 0kts
20-Feb-17 16:42 37.620041 -122.396742 201 26ft 1kts
20-Feb-17 16:43 37.619818 -122.394281 74 26ft 11kts
20-Feb-17 16:44 37.622075 -122.392074 17 26ft 9kts
20-Feb-17 16:45 37.625259 -122.393278 333 26ft 7kts
20-Feb-17 16:46 37.625274 -122.393285 337 26ft 0kts
20-Feb-17 16:47 37.625279 -122.393287 337 26ft 0kts
20-Feb-17 16:48 37.625279 -122.393287 337 26ft 0kts
20-Feb-17 16:49 37.625279 -122.393287 337 26ft 0kts
20-Feb-17 16:50 37.623429 -122.386271 117 26ft 112kts
20-Feb-17 16:51 37.599692 -122.329807 123 2703ft 227kts
20-Feb-17 16:52 37.570710 -122.253899 118 5835ft 271kts
20-Feb-17 16:53 37.535799 -122.156583 120 8548ft 311kts
20-Feb-17 16:54 37.502055 -122.050883 117 11555ft 357kts
20-Feb-17 16:55 37.462685 -121.925349 118 14239ft 403kts
20-Feb-17 16:56 37.421412 -121.791282 115 17688ft 421kts
20-Feb-17 16:57 37.383554 -121.647647 115 19433ft 440kts
20-Feb-17 16:58 37.343707 -121.496978 115 21856ft 468kts
20-Feb-17 16:59 37.301002 -121.337761 115 24166ft 495kts
20-Feb-17 17:00 37.255393 -121.168412 115 26106ft 525kts
20-Feb-17 17:01 37.207006 -120.990490 115 27942ft 553kts
20-Feb-17 17:02 37.156002 -120.805078 115 29763ft 575kts
20-Feb-17 17:03 37.103301 -120.614366 116 31935ft 580kts
20-Feb-17 17:04 37.049977 -120.422824 117 33092ft 580kts
20-Feb-17 17:05 36.996919 -120.232469 117 33130ft 580kts
20-Feb-17 17:06 36.943368 -120.042744 117 33138ft 578kts
20-Feb-17 17:07 36.910056 -119.844494 87 33138ft 608kts
20-Feb-17 17:08 36.975179 -119.652794 59 33185ft 606kts
20-Feb-17 17:09 37.040524 -119.458705 66 33179ft 606kts
20-Feb-17 17:10 37.103541 -119.262563 65 33174ft 605kts
20-Feb-17 17:11 37.166356 -119.067484 65 33168ft 603kts
20-Feb-17 17:12 37.228578 -118.872444 65 33165ft 602kts
20-Feb-17 17:13 37.281125 -118.673419 78 33200ft 603kts
20-Feb-17 17:14 37.300440 -118.464523 85 33205ft 603kts
20-Feb-17 17:15 37.318860 -118.254838 83 33225ft 603kts
20-Feb-17 17:16 37.337695 -118.045668 84 33207ft 603kts
20-Feb-17 17:17 37.347554 -117.835997 95 33209ft 601kts
20-Feb-17 17:18 37.327502 -117.627878 100 33203ft 598kts
20-Feb-17 17:19 37.308395 -117.422992 102 33175ft 591kts
20-Feb-17 17:20 37.260617 -117.234005 136 33193ft 540kts
20-Feb-17 17:21 37.164511 -117.091254 140 33194ft 542kts
20-Feb-17 17:22 37.072101 -116.942385 144 33172ft 530kts
20-Feb-17 17:23 36.962394 -116.825302 153 33169ft 517kts
20-Feb-17 17:24 36.850143 -116.712412 152 33171ft 518kts
20-Feb-17 17:25 36.740233 -116.592149 147 33179ft 530kts
20-Feb-17 17:26 36.633886 -116.466277 147 33172ft 528kts
20-Feb-17 17:27 36.526496 -116.341285 148 33182ft 526kts
20-Feb-17 17:28 36.430166 -116.200106 127 33180ft 556kts
20-Feb-17 17:29 36.359590 -116.028729 124 33183ft 558kts
20-Feb-17 17:30 36.287541 -115.857275 124 33179ft 566kts
20-Feb-17 17:31 36.214780 -115.684928 124 33181ft 564kts
20-Feb-17 17:31 36.153554 -115.541982 125 33179ft 563kts
20-Feb-17 17:32 36.079731 -115.370005 124 33183ft 565kts
20-Feb-17 17:34 35.993951 -115.171424 124 33204ft 565kts
20-Feb-17 17:35 35.920135 -115.002411 125 33266ft 560kts
20-Feb-17 17:36 35.847856 -114.836754 124 33253ft 560kts
20-Feb-17 17:36 35.784424 -114.691840 124 33250ft 561kts
20-Feb-17 17:37 35.710249 -114.523693 124 33288ft 561kts
20-Feb-17 17:38 35.635450 -114.354450 124 33286ft 561kts
20-Feb-17 17:39 35.560226 -114.186260 124 33291ft 562kts
20-Feb-17 17:40 35.484933 -114.018062 124 33305ft 562kts
20-Feb-17 17:41 35.409035 -113.849483 124 33316ft 563kts
20-Feb-17 17:42 35.333158 -113.681591 124 33321ft 564kts
20-Feb-17 17:43 35.257224 -113.513938 124 33324ft 564kts
20-Feb-17 17:45 35.167284 -113.318966 127 33323ft 559kts
20-Feb-17 17:45 35.090002 -113.196820 137 32973ft 553kts
20-Feb-17 17:46 34.994277 -113.055231 134 31631ft 528kts
20-Feb-17 17:47 34.904452 -112.918786 132 30052ft 506kts
20-Feb-17 17:48 34.818517 -112.788029 132 28462ft 485kts
20-Feb-17 17:49 34.735589 -112.662954 131 26880ft 469kts
20-Feb-17 17:50 34.655087 -112.541977 130 25298ft 453kts
20-Feb-17 17:51 34.577519 -112.425328 130 24372ft 440kts
20-Feb-17 17:52 34.500333 -112.310357 130 24318ft 433kts
20-Feb-17 17:53 34.415582 -112.217752 163 22755ft 395kts
20-Feb-17 17:54 34.311470 -112.193216 176 21096ft 375kts
20-Feb-17 17:55 34.210471 -112.169257 172 19425ft 365kts
20-Feb-17 17:56 34.112997 -112.144062 174 17583ft 353kts
20-Feb-17 17:57 34.016404 -112.144300 190 15268ft 342kts
20-Feb-17 17:58 33.922187 -112.155434 188 12872ft 338kts
20-Feb-17 17:59 33.832295 -112.172982 193 11095ft 320kts
20-Feb-17 18:00 33.745443 -112.191595 192 10029ft 310kts
20-Feb-17 18:01 33.665508 -112.208436 190 8699ft 282kts
20-Feb-17 18:02 33.587782 -112.224810 190 6609ft 284kts
20-Feb-17 18:03 33.511319 -112.240313 184 4846ft 272kts
20-Feb-17 18:04 33.442727 -112.222217 129 3320ft 255kts
20-Feb-17 18:05 33.419421 -112.152294 74 2373ft 224kts
20-Feb-17 18:06 33.437669 -112.096226 73 2109ft 160kts
20-Feb-17 18:07 33.440832 -112.057080 91 1641ft 155kts
20-Feb-17 18:08 33.440862 -112.008764 91 1148ft 80kts
20-Feb-17 18:09 33.440748 -111.999078 111 1148ft 1kts
20-Feb-17 18:10 33.438952 -111.999588 276 1148ft 8kts
20-Feb-17 18:11 33.438685 -112.003720 208 1148ft 3kts
20-Feb-17 18:12 33.432952 -112.004186 238 1148ft 12kts
20-Feb-17 18:13 33.432885 -112.008043 271 1148ft 8kts
20-Feb-17 18:14 33.432861 -112.014092 269 1148ft 15kts
20-Feb-17 18:15 33.432843 -112.018751 269 1148ft 33kts
20-Feb-17 18:16 33.434201 -112.021272 290 1148ft 0kts
20-Feb-17 18:17 33.434201 -112.021272 290 1148ft 0kts

Navigation Log

Ident Type
Flight plan parsing failed, navigation log unavailable